sensor_id;sensor_type;location;lat;lon;timestamp;P1;durP1;ratioP1;P2;durP2;ratioP2
36185;SDS011;22228;53.222;7.446;2023-04-03T00:01:16;1.27;;;0.80;;
36185;SDS011;22228;53.222;7.446;2023-04-03T00:03:37;1.90;;;0.90;;
36185;SDS011;22228;53.222;7.446;2023-04-03T00:05:57;1.77;;;1.00;;
36185;SDS011;22228;53.222;7.446;2023-04-03T00:08:19;3.13;;;1.10;;
36185;SDS011;22228;53.222;7.446;2023-04-03T00:10:40;2.27;;;0.83;;
36185;SDS011;22228;53.222;7.446;2023-04-03T00:13:00;4.43;;;0.90;;
36185;SDS011;22228;53.222;7.446;2023-04-03T03:00:58;4.47;;;1.57;;
36185;SDS011;22228;53.222;7.446;2023-04-03T03:03:19;5.60;;;2.00;;
36185;SDS011;22228;53.222;7.446;2023-04-03T03:05:40;3.77;;;1.70;;
36185;SDS011;22228;53.222;7.446;2023-04-03T03:08:01;4.43;;;1.80;;
36185;SDS011;22228;53.222;7.446;2023-04-03T03:10:21;5.30;;;1.70;;
36185;SDS011;22228;53.222;7.446;2023-04-03T03:12:42;3.17;;;1.40;;
36185;SDS011;22228;53.222;7.446;2023-04-03T03:15:03;2.80;;;1.50;;
36185;SDS011;22228;53.222;7.446;2023-04-03T03:17:26;4.50;;;2.23;;
36185;SDS011;22228;53.222;7.446;2023-04-03T03:19:46;5.93;;;1.80;;
36185;SDS011;22228;53.222;7.446;2023-04-03T03:22:06;4.20;;;1.87;;
36185;SDS011;22228;53.222;7.446;2023-04-03T03:24:27;1.90;;;1.47;;
36185;SDS011;22228;53.222;7.446;2023-04-03T03:26:47;2.87;;;1.70;;
36185;SDS011;22228;53.222;7.446;2023-04-03T03:29:08;5.47;;;1.93;;
36185;SDS011;22228;53.222;7.446;2023-04-03T03:31:29;5.03;;;2.07;;
36185;SDS011;22228;53.222;7.446;2023-04-03T03:33:51;6.60;;;2.50;;
36185;SDS011;22228;53.222;7.446;2023-04-03T03:36:11;5.93;;;2.20;;
36185;SDS011;22228;53.222;7.446;2023-04-03T03:38:32;5.07;;;2.33;;
36185;SDS011;22228;53.222;7.446;2023-04-03T03:40:54;8.07;;;2.90;;
36185;SDS011;22228;53.222;7.446;2023-04-03T03:43:15;5.10;;;2.60;;
36185;SDS011;22228;53.222;7.446;2023-04-03T03:45:36;6.07;;;2.50;;
36185;SDS011;22228;53.222;7.446;2023-04-03T03:47:57;5.03;;;2.30;;
36185;SDS011;22228;53.222;7.446;2023-04-03T03:50:19;5.00;;;2.50;;
36185;SDS011;22228;53.222;7.446;2023-04-03T03:52:39;5.17;;;2.17;;
36185;SDS011;22228;53.222;7.446;2023-04-03T03:54:59;3.63;;;2.20;;
36185;SDS011;22228;53.222;7.446;2023-04-03T03:57:20;6.00;;;2.47;;
36185;SDS011;22228;53.222;7.446;2023-04-03T03:59:41;8.97;;;3.23;;
36185;SDS011;22228;53.222;7.446;2023-04-03T04:02:03;5.37;;;2.73;;
36185;SDS011;22228;53.222;7.446;2023-04-03T04:04:23;5.90;;;2.93;;
36185;SDS011;22228;53.222;7.446;2023-04-03T04:06:45;5.87;;;2.83;;
36185;SDS011;22228;53.222;7.446;2023-04-03T04:09:05;4.93;;;2.87;;
36185;SDS011;22228;53.222;7.446;2023-04-03T04:11:26;5.83;;;3.07;;
36185;SDS011;22228;53.222;7.446;2023-04-03T04:13:47;4.10;;;2.83;;
36185;SDS011;22228;53.222;7.446;2023-04-03T04:16:10;7.03;;;3.03;;
36185;SDS011;22228;53.222;7.446;2023-04-03T04:18:31;6.10;;;2.70;;
36185;SDS011;22228;53.222;7.446;2023-04-03T04:20:51;7.87;;;3.00;;
36185;SDS011;22228;53.222;7.446;2023-04-03T04:23:13;4.97;;;2.83;;
36185;SDS011;22228;53.222;7.446;2023-04-03T04:25:33;6.17;;;3.20;;
36185;SDS011;22228;53.222;7.446;2023-04-03T04:27:54;9.57;;;2.87;;
36185;SDS011;22228;53.222;7.446;2023-04-03T04:30:14;3.40;;;2.70;;
36185;SDS011;22228;53.222;7.446;2023-04-03T04:32:37;6.03;;;2.60;;
36185;SDS011;22228;53.222;7.446;2023-04-03T04:34:57;7.40;;;2.37;;
36185;SDS011;22228;53.222;7.446;2023-04-03T04:37:18;5.90;;;2.40;;
36185;SDS011;22228;53.222;7.446;2023-04-03T04:39:41;5.73;;;3.00;;
36185;SDS011;22228;53.222;7.446;2023-04-03T04:42:02;6.33;;;2.93;;
36185;SDS011;22228;53.222;7.446;2023-04-03T04:44:24;8.33;;;3.27;;
36185;SDS011;22228;53.222;7.446;2023-04-03T04:46:45;7.13;;;3.43;;
36185;SDS011;22228;53.222;7.446;2023-04-03T04:49:05;5.90;;;2.77;;
36185;SDS011;22228;53.222;7.446;2023-04-03T04:51:26;4.23;;;3.07;;
36185;SDS011;22228;53.222;7.446;2023-04-03T04:53:47;5.57;;;2.47;;
36185;SDS011;22228;53.222;7.446;2023-04-03T04:56:11;6.30;;;2.93;;
36185;SDS011;22228;53.222;7.446;2023-04-03T04:58:32;6.00;;;3.10;;
36185;SDS011;22228;53.222;7.446;2023-04-03T05:00:58;6.93;;;3.80;;
36185;SDS011;22228;53.222;7.446;2023-04-03T05:03:19;6.63;;;3.10;;
36185;SDS011;22228;53.222;7.446;2023-04-03T05:05:39;4.80;;;2.90;;
36185;SDS011;22228;53.222;7.446;2023-04-03T05:08:00;8.60;;;3.60;;
36185;SDS011;22228;53.222;7.446;2023-04-03T05:10:20;5.03;;;3.23;;
36185;SDS011;22228;53.222;7.446;2023-04-03T05:12:42;4.73;;;3.17;;
36185;SDS011;22228;53.222;7.446;2023-04-03T05:15:03;7.27;;;3.87;;
36185;SDS011;22228;53.222;7.446;2023-04-03T05:17:25;4.80;;;4.17;;
36185;SDS011;22228;53.222;7.446;2023-04-03T05:19:48;6.47;;;3.83;;
36185;SDS011;22228;53.222;7.446;2023-04-03T05:22:12;11.93;;;4.57;;
36185;SDS011;22228;53.222;7.446;2023-04-03T05:24:33;6.67;;;3.93;;
36185;SDS011;22228;53.222;7.446;2023-04-03T05:26:55;8.63;;;4.47;;
36185;SDS011;22228;53.222;7.446;2023-04-03T05:29:17;7.57;;;3.60;;
36185;SDS011;22228;53.222;7.446;2023-04-03T05:31:38;7.53;;;4.17;;
36185;SDS011;22228;53.222;7.446;2023-04-03T05:34:01;7.07;;;3.77;;
36185;SDS011;22228;53.222;7.446;2023-04-03T05:36:24;7.50;;;3.67;;
36185;SDS011;22228;53.222;7.446;2023-04-03T05:38:49;10.97;;;3.83;;
36185;SDS011;22228;53.222;7.446;2023-04-03T05:41:10;9.43;;;4.57;;
36185;SDS011;22228;53.222;7.446;2023-04-03T05:43:30;11.27;;;4.00;;
36185;SDS011;22228;53.222;7.446;2023-04-03T05:45:53;6.70;;;3.87;;
36185;SDS011;22228;53.222;7.446;2023-04-03T05:48:16;10.10;;;4.43;;
36185;SDS011;22228;53.222;7.446;2023-04-03T05:50:37;8.30;;;3.90;;
36185;SDS011;22228;53.222;7.446;2023-04-03T05:53:00;6.47;;;3.87;;
36185;SDS011;22228;53.222;7.446;2023-04-03T05:55:25;8.17;;;3.80;;
36185;SDS011;22228;53.222;7.446;2023-04-03T05:57:45;6.70;;;4.70;;
36185;SDS011;22228;53.222;7.446;2023-04-03T06:00:06;8.40;;;4.57;;
36185;SDS011;22228;53.222;7.446;2023-04-03T06:02:34;8.93;;;3.87;;
36185;SDS011;22228;53.222;7.446;2023-04-03T06:04:54;6.00;;;4.33;;
36185;SDS011;22228;53.222;7.446;2023-04-03T06:07:15;10.17;;;4.03;;
36185;SDS011;22228;53.222;7.446;2023-04-03T06:09:37;8.80;;;3.93;;
36185;SDS011;22228;53.222;7.446;2023-04-03T06:11:58;7.07;;;4.20;;
36185;SDS011;22228;53.222;7.446;2023-04-03T06:14:21;6.97;;;3.97;;
36185;SDS011;22228;53.222;7.446;2023-04-03T06:16:41;8.10;;;3.57;;
36185;SDS011;22228;53.222;7.446;2023-04-03T06:19:03;9.50;;;3.63;;
36185;SDS011;22228;53.222;7.446;2023-04-03T06:21:24;10.00;;;3.93;;
36185;SDS011;22228;53.222;7.446;2023-04-03T06:23:45;5.43;;;3.63;;
36185;SDS011;22228;53.222;7.446;2023-04-03T06:26:05;6.17;;;3.60;;
36185;SDS011;22228;53.222;7.446;2023-04-03T06:28:25;10.30;;;4.17;;
36185;SDS011;22228;53.222;7.446;2023-04-03T06:30:46;7.50;;;4.03;;
36185;SDS011;22228;53.222;7.446;2023-04-03T06:33:06;7.50;;;4.07;;
36185;SDS011;22228;53.222;7.446;2023-04-03T06:35:28;6.27;;;3.73;;
36185;SDS011;22228;53.222;7.446;2023-04-03T06:37:48;7.47;;;3.13;;
36185;SDS011;22228;53.222;7.446;2023-04-03T06:40:10;6.90;;;3.33;;
36185;SDS011;22228;53.222;7.446;2023-04-03T06:42:37;4.83;;;3.00;;
36185;SDS011;22228;53.222;7.446;2023-04-03T06:45:02;8.77;;;3.60;;
36185;SDS011;22228;53.222;7.446;2023-04-03T06:47:24;6.73;;;3.80;;
36185;SDS011;22228;53.222;7.446;2023-04-03T06:49:44;6.50;;;3.27;;
36185;SDS011;22228;53.222;7.446;2023-04-03T06:52:06;5.70;;;3.47;;
36185;SDS011;22228;53.222;7.446;2023-04-03T06:54:27;7.20;;;3.33;;
36185;SDS011;22228;53.222;7.446;2023-04-03T06:56:47;6.30;;;3.00;;
36185;SDS011;22228;53.222;7.446;2023-04-03T06:59:09;8.97;;;3.27;;
36185;SDS011;22228;53.222;7.446;2023-04-03T07:01:29;6.10;;;3.50;;
36185;SDS011;22228;53.222;7.446;2023-04-03T07:03:50;7.77;;;3.57;;
36185;SDS011;22228;53.222;7.446;2023-04-03T07:06:11;7.33;;;3.43;;
36185;SDS011;22228;53.222;7.446;2023-04-03T07:08:34;5.53;;;3.00;;
36185;SDS011;22228;53.222;7.446;2023-04-03T07:10:54;7.30;;;3.20;;
36185;SDS011;22228;53.222;7.446;2023-04-03T07:13:14;6.73;;;3.23;;
36185;SDS011;22228;53.222;7.446;2023-04-03T07:15:35;6.47;;;3.30;;
36185;SDS011;22228;53.222;7.446;2023-04-03T07:17:55;5.43;;;3.20;;
36185;SDS011;22228;53.222;7.446;2023-04-03T07:20:16;3.63;;;2.73;;
36185;SDS011;22228;53.222;7.446;2023-04-03T07:22:36;5.97;;;2.43;;
36185;SDS011;22228;53.222;7.446;2023-04-03T07:24:58;5.50;;;2.70;;
36185;SDS011;22228;53.222;7.446;2023-04-03T07:27:18;5.93;;;2.40;;
36185;SDS011;22228;53.222;7.446;2023-04-03T07:29:39;6.30;;;2.33;;
36185;SDS011;22228;53.222;7.446;2023-04-03T07:31:59;6.97;;;2.50;;
36185;SDS011;22228;53.222;7.446;2023-04-03T07:34:19;5.20;;;2.50;;
36185;SDS011;22228;53.222;7.446;2023-04-03T07:36:40;5.30;;;2.50;;
36185;SDS011;22228;53.222;7.446;2023-04-03T07:39:00;3.77;;;2.20;;
36185;SDS011;22228;53.222;7.446;2023-04-03T07:41:22;4.90;;;2.40;;
36185;SDS011;22228;53.222;7.446;2023-04-03T07:43:42;4.93;;;2.40;;
36185;SDS011;22228;53.222;7.446;2023-04-03T07:46:04;5.63;;;2.23;;
36185;SDS011;22228;53.222;7.446;2023-04-03T07:48:25;4.50;;;1.90;;
36185;SDS011;22228;53.222;7.446;2023-04-03T07:50:46;3.47;;;1.90;;
36185;SDS011;22228;53.222;7.446;2023-04-03T07:53:06;4.83;;;2.47;;
36185;SDS011;22228;53.222;7.446;2023-04-03T07:55:27;4.23;;;2.07;;
36185;SDS011;22228;53.222;7.446;2023-04-03T07:57:49;5.03;;;1.77;;
36185;SDS011;22228;53.222;7.446;2023-04-03T08:00:10;2.80;;;1.80;;
36185;SDS011;22228;53.222;7.446;2023-04-03T08:02:33;3.07;;;1.60;;
36185;SDS011;22228;53.222;7.446;2023-04-03T08:04:54;4.07;;;1.67;;
36185;SDS011;22228;53.222;7.446;2023-04-03T08:07:14;4.23;;;1.70;;
36185;SDS011;22228;53.222;7.446;2023-04-03T08:09:35;4.13;;;1.70;;
36185;SDS011;22228;53.222;7.446;2023-04-03T08:11:55;4.33;;;2.00;;
36185;SDS011;22228;53.222;7.446;2023-04-03T08:14:17;3.30;;;1.60;;
36185;SDS011;22228;53.222;7.446;2023-04-03T08:16:38;2.40;;;1.27;;
36185;SDS011;22228;53.222;7.446;2023-04-03T08:18:58;1.93;;;1.43;;
36185;SDS011;22228;53.222;7.446;2023-04-03T08:21:19;2.47;;;1.30;;
36185;SDS011;22228;53.222;7.446;2023-04-03T08:23:39;2.80;;;1.20;;
36185;SDS011;22228;53.222;7.446;2023-04-03T08:26:05;4.17;;;1.30;;
36185;SDS011;22228;53.222;7.446;2023-04-03T08:28:26;3.00;;;1.13;;
36185;SDS011;22228;53.222;7.446;2023-04-03T08:30:48;3.57;;;1.23;;
36185;SDS011;22228;53.222;7.446;2023-04-03T08:33:09;1.90;;;1.10;;
36185;SDS011;22228;53.222;7.446;2023-04-03T08:35:30;2.40;;;1.20;;
36185;SDS011;22228;53.222;7.446;2023-04-03T08:37:50;3.07;;;1.10;;
36185;SDS011;22228;53.222;7.446;2023-04-03T08:40:13;1.40;;;1.13;;
36185;SDS011;22228;53.222;7.446;2023-04-03T08:42:36;3.83;;;1.27;;
36185;SDS011;22228;53.222;7.446;2023-04-03T08:45:07;1.53;;;0.90;;
36185;SDS011;22228;53.222;7.446;2023-04-03T08:47:34;2.87;;;0.93;;
36185;SDS011;22228;53.222;7.446;2023-04-03T08:49:59;2.20;;;1.00;;
36185;SDS011;22228;53.222;7.446;2023-04-03T08:52:22;1.50;;;0.87;;
36185;SDS011;22228;53.222;7.446;2023-04-03T08:54:52;3.43;;;1.03;;
36185;SDS011;22228;53.222;7.446;2023-04-03T08:57:16;2.03;;;0.93;;
36185;SDS011;22228;53.222;7.446;2023-04-03T08:59:47;4.20;;;0.83;;
36185;SDS011;22228;53.222;7.446;2023-04-03T09:02:15;1.40;;;0.83;;
36185;SDS011;22228;53.222;7.446;2023-04-03T09:04:45;2.50;;;1.00;;
36185;SDS011;22228;53.222;7.446;2023-04-03T09:07:07;1.50;;;0.80;;
36185;SDS011;22228;53.222;7.446;2023-04-03T09:09:34;1.83;;;0.70;;
36185;SDS011;22228;53.222;7.446;2023-04-03T09:12:00;1.63;;;0.70;;
36185;SDS011;22228;53.222;7.446;2023-04-03T09:14:29;1.40;;;0.50;;
36185;SDS011;22228;53.222;7.446;2023-04-03T09:16:55;1.27;;;0.60;;
36185;SDS011;22228;53.222;7.446;2023-04-03T09:19:19;2.00;;;0.50;;
36185;SDS011;22228;53.222;7.446;2023-04-03T09:21:44;2.40;;;0.80;;
36185;SDS011;22228;53.222;7.446;2023-04-03T09:24:05;1.83;;;0.70;;
36185;SDS011;22228;53.222;7.446;2023-04-03T09:26:28;1.03;;;0.70;;
36185;SDS011;22228;53.222;7.446;2023-04-03T09:28:54;2.30;;;0.70;;
36185;SDS011;22228;53.222;7.446;2023-04-03T09:31:19;1.17;;;0.60;;
36185;SDS011;22228;53.222;7.446;2023-04-03T09:33:41;3.63;;;0.80;;
36185;SDS011;22228;53.222;7.446;2023-04-03T09:36:01;7.00;;;1.00;;
36185;SDS011;22228;53.222;7.446;2023-04-03T09:38:24;2.40;;;0.60;;
36185;SDS011;22228;53.222;7.446;2023-04-03T09:40:45;4.10;;;2.83;;
36185;SDS011;22228;53.222;7.446;2023-04-03T09:43:23;2.17;;;0.77;;
36185;SDS011;22228;53.222;7.446;2023-04-03T09:45:46;1.20;;;0.40;;
36185;SDS011;22228;53.222;7.446;2023-04-03T09:48:12;1.60;;;0.40;;
36185;SDS011;22228;53.222;7.446;2023-04-03T09:50:36;1.13;;;0.43;;
36185;SDS011;22228;53.222;7.446;2023-04-03T09:52:57;2.30;;;0.73;;
36185;SDS011;22228;53.222;7.446;2023-04-03T09:55:19;1.33;;;0.50;;
36185;SDS011;22228;53.222;7.446;2023-04-03T09:57:45;1.40;;;0.50;;
36185;SDS011;22228;53.222;7.446;2023-04-03T10:00:10;1.07;;;0.50;;
36185;SDS011;22228;53.222;7.446;2023-04-03T10:02:41;1.40;;;0.60;;
36185;SDS011;22228;53.222;7.446;2023-04-03T10:05:02;1.33;;;0.60;;
36185;SDS011;22228;53.222;7.446;2023-04-03T10:07:31;1.20;;;0.50;;
36185;SDS011;22228;53.222;7.446;2023-04-03T10:09:55;1.37;;;0.40;;
36185;SDS011;22228;53.222;7.446;2023-04-03T10:12:17;1.23;;;0.57;;
36185;SDS011;22228;53.222;7.446;2023-04-03T10:14:40;1.17;;;0.43;;
36185;SDS011;22228;53.222;7.446;2023-04-03T10:17:17;0.97;;;0.40;;
36185;SDS011;22228;53.222;7.446;2023-04-03T10:19:43;2.63;;;0.63;;
36185;SDS011;22228;53.222;7.446;2023-04-03T10:22:10;1.60;;;0.60;;
36185;SDS011;22228;53.222;7.446;2023-04-03T10:24:42;1.97;;;0.70;;
36185;SDS011;22228;53.222;7.446;2023-04-03T10:27:09;2.20;;;0.60;;
36185;SDS011;22228;53.222;7.446;2023-04-03T10:29:38;2.10;;;0.63;;
36185;SDS011;22228;53.222;7.446;2023-04-03T10:32:03;14.27;;;12.40;;
36185;SDS011;22228;53.222;7.446;2023-04-03T10:34:35;1.80;;;1.33;;
36185;SDS011;22228;53.222;7.446;2023-04-03T10:37:01;0.87;;;0.60;;
36185;SDS011;22228;53.222;7.446;2023-04-03T10:39:33;1.20;;;0.40;;
36185;SDS011;22228;53.222;7.446;2023-04-03T10:42:01;1.80;;;0.67;;
36185;SDS011;22228;53.222;7.446;2023-04-03T10:44:27;0.60;;;0.40;;
36185;SDS011;22228;53.222;7.446;2023-04-03T10:46:58;0.80;;;0.43;;
36185;SDS011;22228;53.222;7.446;2023-04-03T10:49:30;1.83;;;0.60;;
36185;SDS011;22228;53.222;7.446;2023-04-03T10:52:02;3.60;;;0.60;;
36185;SDS011;22228;53.222;7.446;2023-04-03T10:54:29;1.63;;;0.50;;
36185;SDS011;22228;53.222;7.446;2023-04-03T10:56:55;0.60;;;0.50;;
36185;SDS011;22228;53.222;7.446;2023-04-03T10:59:23;0.90;;;0.50;;
36185;SDS011;22228;53.222;7.446;2023-04-03T11:01:49;0.80;;;0.60;;
36185;SDS011;22228;53.222;7.446;2023-04-03T11:04:15;0.40;;;0.40;;
36185;SDS011;22228;53.222;7.446;2023-04-03T11:06:39;2.60;;;0.60;;
36185;SDS011;22228;53.222;7.446;2023-04-03T11:09:05;1.07;;;0.77;;
36185;SDS011;22228;53.222;7.446;2023-04-03T11:11:31;1.43;;;0.50;;
36185;SDS011;22228;53.222;7.446;2023-04-03T11:13:55;0.63;;;0.50;;
36185;SDS011;22228;53.222;7.446;2023-04-03T11:16:22;0.73;;;0.30;;
36185;SDS011;22228;53.222;7.446;2023-04-03T11:18:44;0.67;;;0.40;;
36185;SDS011;22228;53.222;7.446;2023-04-03T11:21:11;1.33;;;0.40;;
36185;SDS011;22228;53.222;7.446;2023-04-03T11:23:36;0.80;;;0.40;;
36185;SDS011;22228;53.222;7.446;2023-04-03T11:26:01;0.93;;;0.50;;
36185;SDS011;22228;53.222;7.446;2023-04-03T11:28:29;0.80;;;0.50;;
36185;SDS011;22228;53.222;7.446;2023-04-03T11:30:52;1.10;;;0.50;;
36185;SDS011;22228;53.222;7.446;2023-04-03T11:33:24;1.40;;;0.60;;
36185;SDS011;22228;53.222;7.446;2023-04-03T11:35:57;0.63;;;0.37;;
36185;SDS011;22228;53.222;7.446;2023-04-03T11:38:22;0.70;;;0.33;;
36185;SDS011;22228;53.222;7.446;2023-04-03T11:40:46;1.30;;;0.50;;
36185;SDS011;22228;53.222;7.446;2023-04-03T11:43:07;0.70;;;0.40;;
36185;SDS011;22228;53.222;7.446;2023-04-03T11:45:49;1.33;;;0.50;;
36185;SDS011;22228;53.222;7.446;2023-04-03T11:54:10;0.63;;;0.40;;
36185;SDS011;22228;53.222;7.446;2023-04-03T11:57:22;1.63;;;0.50;;
36185;SDS011;22228;53.222;7.446;2023-04-03T11:59:57;0.50;;;0.50;;
36185;SDS011;22228;53.222;7.446;2023-04-03T12:02:35;2.10;;;1.50;;
36185;SDS011;22228;53.222;7.446;2023-04-03T12:07:48;0.93;;;0.50;;
36185;SDS011;22228;53.222;7.446;2023-04-03T12:10:37;2.20;;;0.50;;
36185;SDS011;22228;53.222;7.446;2023-04-03T12:12:58;1.50;;;0.80;;
36185;SDS011;22228;53.222;7.446;2023-04-03T12:15:24;1.07;;;0.43;;
36185;SDS011;22228;53.222;7.446;2023-04-03T12:21:11;1.10;;;0.50;;
36185;SDS011;22228;53.222;7.446;2023-04-03T12:23:33;1.60;;;0.50;;
36185;SDS011;22228;53.222;7.446;2023-04-03T12:26:00;0.53;;;0.50;;
36185;SDS011;22228;53.222;7.446;2023-04-03T12:28:38;1.53;;;0.40;;
36185;SDS011;22228;53.222;7.446;2023-04-03T12:31:00;1.37;;;0.60;;
36185;SDS011;22228;53.222;7.446;2023-04-03T12:33:24;1.50;;;0.50;;
36185;SDS011;22228;53.222;7.446;2023-04-03T12:35:58;0.80;;;0.57;;
36185;SDS011;22228;53.222;7.446;2023-04-03T12:38:37;1.43;;;0.50;;
36185;SDS011;22228;53.222;7.446;2023-04-03T12:41:21;1.23;;;0.50;;
36185;SDS011;22228;53.222;7.446;2023-04-03T12:43:48;1.10;;;0.50;;
36185;SDS011;22228;53.222;7.446;2023-04-03T12:46:19;1.50;;;0.50;;
36185;SDS011;22228;53.222;7.446;2023-04-03T12:48:47;1.33;;;0.50;;
36185;SDS011;22228;53.222;7.446;2023-04-03T12:51:09;1.17;;;0.50;;
36185;SDS011;22228;53.222;7.446;2023-04-03T12:53:34;1.20;;;0.40;;
36185;SDS011;22228;53.222;7.446;2023-04-03T12:55:57;1.53;;;0.60;;
36185;SDS011;22228;53.222;7.446;2023-04-03T12:58:40;1.17;;;0.60;;
36185;SDS011;22228;53.222;7.446;2023-04-03T13:01:02;1.43;;;1.13;;
36185;SDS011;22228;53.222;7.446;2023-04-03T13:03:24;0.60;;;0.50;;
36185;SDS011;22228;53.222;7.446;2023-04-03T13:05:46;0.90;;;0.40;;
36185;SDS011;22228;53.222;7.446;2023-04-03T13:08:08;0.80;;;0.50;;
36185;SDS011;22228;53.222;7.446;2023-04-03T13:10:41;0.87;;;0.57;;
36185;SDS011;22228;53.222;7.446;2023-04-03T13:13:13;1.77;;;0.50;;
36185;SDS011;22228;53.222;7.446;2023-04-03T13:15:41;0.90;;;0.50;;
36185;SDS011;22228;53.222;7.446;2023-04-03T13:18:04;0.77;;;0.40;;
36185;SDS011;22228;53.222;7.446;2023-04-03T13:20:26;0.93;;;0.40;;
36185;SDS011;22228;53.222;7.446;2023-04-03T13:22:49;1.00;;;0.40;;
36185;SDS011;22228;53.222;7.446;2023-04-03T13:25:13;2.63;;;0.53;;
36185;SDS011;22228;53.222;7.446;2023-04-03T13:27:36;0.87;;;0.57;;
36185;SDS011;22228;53.222;7.446;2023-04-03T13:30:02;1.00;;;0.70;;
36185;SDS011;22228;53.222;7.446;2023-04-03T13:32:28;2.00;;;0.60;;
36185;SDS011;22228;53.222;7.446;2023-04-03T13:34:50;1.83;;;0.50;;
36185;SDS011;22228;53.222;7.446;2023-04-03T13:37:19;1.30;;;0.50;;
36185;SDS011;22228;53.222;7.446;2023-04-03T13:39:40;0.53;;;0.50;;
36185;SDS011;22228;53.222;7.446;2023-04-03T13:42:02;0.50;;;0.40;;
36185;SDS011;22228;53.222;7.446;2023-04-03T13:44:36;0.30;;;0.30;;
36185;SDS011;22228;53.222;7.446;2023-04-03T13:46:58;1.17;;;0.50;;
36185;SDS011;22228;53.222;7.446;2023-04-03T13:49:22;1.57;;;0.50;;
36185;SDS011;22228;53.222;7.446;2023-04-03T13:51:50;1.30;;;0.40;;
36185;SDS011;22228;53.222;7.446;2023-04-03T13:54:13;0.50;;;0.30;;
36185;SDS011;22228;53.222;7.446;2023-04-03T13:56:40;2.30;;;0.60;;
36185;SDS011;22228;53.222;7.446;2023-04-03T13:59:04;1.30;;;0.63;;
36185;SDS011;22228;53.222;7.446;2023-04-03T14:01:41;0.63;;;0.40;;
36185;SDS011;22228;53.222;7.446;2023-04-03T14:04:11;0.60;;;0.50;;
36185;SDS011;22228;53.222;7.446;2023-04-03T14:06:35;0.53;;;0.40;;
36185;SDS011;22228;53.222;7.446;2023-04-03T14:08:56;0.70;;;0.50;;
36185;SDS011;22228;53.222;7.446;2023-04-03T14:11:17;0.90;;;0.33;;
36185;SDS011;22228;53.222;7.446;2023-04-03T14:13:41;1.10;;;0.50;;
36185;SDS011;22228;53.222;7.446;2023-04-03T14:16:02;3.23;;;0.70;;
36185;SDS011;22228;53.222;7.446;2023-04-03T14:18:23;1.97;;;0.70;;
36185;SDS011;22228;53.222;7.446;2023-04-03T14:20:43;0.67;;;0.50;;
36185;SDS011;22228;53.222;7.446;2023-04-03T14:23:05;2.03;;;0.60;;
36185;SDS011;22228;53.222;7.446;2023-04-03T14:25:26;1.97;;;0.60;;
36185;SDS011;22228;53.222;7.446;2023-04-03T14:27:47;1.47;;;0.70;;
36185;SDS011;22228;53.222;7.446;2023-04-03T14:30:11;0.80;;;0.60;;
36185;SDS011;22228;53.222;7.446;2023-04-03T14:32:34;0.70;;;0.60;;
36185;SDS011;22228;53.222;7.446;2023-04-03T14:34:55;0.67;;;0.47;;
36185;SDS011;22228;53.222;7.446;2023-04-03T14:37:17;1.70;;;0.63;;
36185;SDS011;22228;53.222;7.446;2023-04-03T14:39:41;0.60;;;0.50;;
36185;SDS011;22228;53.222;7.446;2023-04-03T14:42:01;1.30;;;0.50;;
36185;SDS011;22228;53.222;7.446;2023-04-03T14:44:22;1.93;;;0.60;;
36185;SDS011;22228;53.222;7.446;2023-04-03T14:46:43;1.33;;;0.70;;
36185;SDS011;22228;53.222;7.446;2023-04-03T14:49:05;1.37;;;0.60;;
36185;SDS011;22228;53.222;7.446;2023-04-03T14:51:33;0.93;;;0.60;;
36185;SDS011;22228;53.222;7.446;2023-04-03T14:53:56;1.00;;;0.60;;
36185;SDS011;22228;53.222;7.446;2023-04-03T14:56:19;1.13;;;0.60;;
36185;SDS011;22228;53.222;7.446;2023-04-03T14:58:42;1.07;;;0.70;;
36185;SDS011;22228;53.222;7.446;2023-04-03T15:01:03;3.40;;;0.60;;
36185;SDS011;22228;53.222;7.446;2023-04-03T15:03:23;0.77;;;0.47;;
36185;SDS011;22228;53.222;7.446;2023-04-03T15:05:45;2.33;;;0.53;;
36185;SDS011;22228;53.222;7.446;2023-04-03T15:08:08;1.73;;;0.63;;
36185;SDS011;22228;53.222;7.446;2023-04-03T15:10:37;1.37;;;0.70;;
36185;SDS011;22228;53.222;7.446;2023-04-03T15:12:59;3.03;;;0.87;;
36185;SDS011;22228;53.222;7.446;2023-04-03T15:15:20;1.80;;;0.50;;
36185;SDS011;22228;53.222;7.446;2023-04-03T15:17:41;0.90;;;0.50;;
36185;SDS011;22228;53.222;7.446;2023-04-03T15:20:03;1.50;;;0.70;;
36185;SDS011;22228;53.222;7.446;2023-04-03T15:22:30;1.53;;;0.60;;
36185;SDS011;22228;53.222;7.446;2023-04-03T15:24:51;1.23;;;0.67;;
36185;SDS011;22228;53.222;7.446;2023-04-03T15:27:12;0.93;;;0.70;;
36185;SDS011;22228;53.222;7.446;2023-04-03T15:29:35;1.00;;;0.50;;
36185;SDS011;22228;53.222;7.446;2023-04-03T15:31:56;1.02;;;0.63;;
36185;SDS011;22228;53.222;7.446;2023-04-03T15:34:16;0.57;;;0.57;;
36185;SDS011;22228;53.222;7.446;2023-04-03T15:36:37;1.07;;;0.60;;
36185;SDS011;22228;53.222;7.446;2023-04-03T15:38:57;0.80;;;0.60;;
36185;SDS011;22228;53.222;7.446;2023-04-03T15:41:17;0.70;;;0.60;;
36185;SDS011;22228;53.222;7.446;2023-04-03T15:43:38;0.70;;;0.70;;
36185;SDS011;22228;53.222;7.446;2023-04-03T15:45:59;1.77;;;0.50;;
36185;SDS011;22228;53.222;7.446;2023-04-03T15:48:20;1.43;;;0.60;;
36185;SDS011;22228;53.222;7.446;2023-04-03T15:50:41;1.03;;;0.70;;
36185;SDS011;22228;53.222;7.446;2023-04-03T15:53:02;1.67;;;0.50;;
36185;SDS011;22228;53.222;7.446;2023-04-03T15:55:23;0.80;;;0.60;;
36185;SDS011;22228;53.222;7.446;2023-04-03T15:57:44;1.80;;;0.60;;
36185;SDS011;22228;53.222;7.446;2023-04-03T16:00:05;1.47;;;0.60;;
36185;SDS011;22228;53.222;7.446;2023-04-03T16:02:27;0.70;;;0.70;;
36185;SDS011;22228;53.222;7.446;2023-04-03T16:04:48;1.30;;;0.60;;
36185;SDS011;22228;53.222;7.446;2023-04-03T16:07:09;1.10;;;0.60;;
36185;SDS011;22228;53.222;7.446;2023-04-03T16:09:30;0.90;;;0.70;;
36185;SDS011;22228;53.222;7.446;2023-04-03T16:11:51;0.70;;;0.57;;
36185;SDS011;22228;53.222;7.446;2023-04-03T16:14:11;0.93;;;0.50;;
36185;SDS011;22228;53.222;7.446;2023-04-03T16:16:32;1.37;;;0.83;;
36185;SDS011;22228;53.222;7.446;2023-04-03T16:18:54;1.40;;;0.70;;
36185;SDS011;22228;53.222;7.446;2023-04-03T16:21:15;1.53;;;0.70;;
36185;SDS011;22228;53.222;7.446;2023-04-03T16:23:37;1.17;;;0.67;;
36185;SDS011;22228;53.222;7.446;2023-04-03T16:25:57;0.77;;;0.50;;
36185;SDS011;22228;53.222;7.446;2023-04-03T16:28:18;0.97;;;0.60;;
36185;SDS011;22228;53.222;7.446;2023-04-03T16:30:39;1.63;;;0.97;;
36185;SDS011;22228;53.222;7.446;2023-04-03T16:33:00;2.00;;;0.87;;
36185;SDS011;22228;53.222;7.446;2023-04-03T16:35:22;2.23;;;0.83;;
36185;SDS011;22228;53.222;7.446;2023-04-03T16:37:43;1.90;;;0.70;;
36185;SDS011;22228;53.222;7.446;2023-04-03T16:40:04;1.20;;;0.60;;
36185;SDS011;22228;53.222;7.446;2023-04-03T16:42:25;2.77;;;0.60;;
36185;SDS011;22228;53.222;7.446;2023-04-03T16:44:46;0.80;;;0.70;;
36185;SDS011;22228;53.222;7.446;2023-04-03T16:47:06;0.63;;;0.50;;
36185;SDS011;22228;53.222;7.446;2023-04-03T16:49:27;2.40;;;0.60;;
36185;SDS011;22228;53.222;7.446;2023-04-03T16:51:51;0.87;;;0.63;;
36185;SDS011;22228;53.222;7.446;2023-04-03T16:54:12;1.53;;;0.50;;
36185;SDS011;22228;53.222;7.446;2023-04-03T16:56:32;1.03;;;0.60;;
36185;SDS011;22228;53.222;7.446;2023-04-03T16:58:53;0.97;;;0.43;;
36185;SDS011;22228;53.222;7.446;2023-04-03T17:01:15;1.00;;;0.57;;
36185;SDS011;22228;53.222;7.446;2023-04-03T17:03:36;1.50;;;0.50;;
36185;SDS011;22228;53.222;7.446;2023-04-03T17:05:56;0.93;;;0.87;;
36185;SDS011;22228;53.222;7.446;2023-04-03T17:08:18;0.93;;;0.67;;
36185;SDS011;22228;53.222;7.446;2023-04-03T17:10:39;1.37;;;0.50;;
36185;SDS011;22228;53.222;7.446;2023-04-03T17:13:00;2.60;;;1.30;;
36185;SDS011;22228;53.222;7.446;2023-04-03T17:15:20;2.03;;;0.90;;
36185;SDS011;22228;53.222;7.446;2023-04-03T17:17:41;1.60;;;0.60;;
36185;SDS011;22228;53.222;7.446;2023-04-03T17:20:01;0.93;;;0.50;;
36185;SDS011;22228;53.222;7.446;2023-04-03T17:22:22;0.70;;;0.70;;